Iran A313 at Hamburg on Jul 7th 2013, overran runway on landing

Last Update: July 7, 2013 / 20:04:00 GMT/Zulu time

Bookmark this article
Incident Facts

Date of incident
Jul 7, 2013

Classification
Incident

Airline
Iran Air

Flight number
IR-723

Destination
Hamburg, Germany

Aircraft Registration
EP-IBK

Aircraft Type
Airbus A310-300

ICAO Type Designator
A313

Airport ICAO Code
EDDH

An Iran Air Airbus A310-300, registration EP-IBK performing flight IR-723 from Tehran Imam Khomeini (Iran) to Hamburg (Germany), landed on Hamburg's shortened runway 23 at 11:44L (09:44Z) but overran the end separating a building site on the runway before coming to a stop. No injuries occurred, the aircraft remained without damage. The passengers disembarked onto the runway via mobile stairs, the aircraft was subsequently towed to the apron.

The incident aircraft was able to depart for the return flight IR-722 via Ljubljana (Slovenia) to Tehran about 5:45 hours after landing and is estimated to reach Tehran with a delay of 4:15 hours.

Related NOTAMs:
A3510/13 - RWY 05 CLOSED FOR LANDING.
DEPARTURES RWY 05 MAX OUT OF TWY M. 03 JUL 09:11 2013 UNTIL 07 JUL 22:00 2013. CREATED: 03 JUL 09:12 2013

A3509/13 - NEW DISTANCES RWY 23 AS FOLLOWS:
LDA: 2302M
TORA / ASDA TWY A-EAST: 2458M
TORA / ASDA TWY A-WEST: 2426M
TORA / ASDA TWY B-EAST: 2258M
TORA / ASDA TWY G: 1858M
TORA / ASDA TWY U: 1468M
TWY O CLSD FOR INT TAKE-OFF.
TODA UNCHANGED. 03 JUL 09:07 2013 UNTIL 07 JUL 22:00 2013. CREATED: 03 JUL 09:07 2013

Metars:
EDDH 071120Z 32004KT 230V030 CAVOK 23/11 Q1032 NOSIG
EDDH 071050Z 09005KT 040V180 9999 FEW040 22/12 Q1032 NOSIG
EDDH 071020Z VRB03KT 9999 FEW040 22/13 Q1032 NOSIG
EDDH 070950Z 08005KT 330V130 9999 FEW038 21/13 Q1032 NOSIG
EDDH 070920Z 05005KT 360V160 9999 FEW038 21/13 Q1032 NOSIG
EDDH 070850Z 10005KT 070V180 9999 FEW035 21/13 Q1032 NOSIG
EDDH 070820Z 09005KT 350V160 CAVOK 20/12 Q1032 NOSIG
EDDH 070750Z 08004KT 010V140 CAVOK 19/11 Q1032 NOSIG
EDDH 070720Z 07003KT 350V160 CAVOK 19/11 Q1032 NOSIG
EDDH 070650Z 06004KT 350V090 9999 FEW028 18/12 Q1032 NOSIG
EDDH 070620Z 06003KT 360V100 CAVOK 17/12 Q1032 NOSIG
Incident Facts

Date of incident
Jul 7, 2013

Classification
Incident

Airline
Iran Air

Flight number
IR-723

Destination
Hamburg, Germany

Aircraft Registration
EP-IBK

Aircraft Type
Airbus A310-300

ICAO Type Designator
A313

Airport ICAO Code
EDDH

This article is published under license from Avherald.com. © of text by Avherald.com.
Article source

You can read 2 more free articles without a subscription.

Subscribe now and continue reading without any limits!

Are you a subscriber? Login
Subscribe

Read unlimited articles and receive our daily update briefing. Gain better insights into what is happening in commercial aviation safety.

Free newsletter

Want to know more and stay ahead? Get our free weekly newsletter and join 5278 existing subscribers.

By subscribing, you accept our terms and conditions and confirm that you've read our privacy policy.

Send tip

Support AeroInside by sending a small tip amount.

Related articles

Newest articles

Subscribe today

Are you researching aviation incidents? Get access to AeroInside Insights, unlimited read access and receive the daily newsletter.

Pick your plan and subscribe

Partner

Blockaviation logo

A new way to document and demonstrate airworthiness compliance and aircraft value. Find out more.

Virtual Speech logo

ELITE Simulation Solutions is a leading global provider of Flight Simulation Training Devices, IFR training software as well as flight controls and related services. Find out more.

Get updates

Never miss an article from AeroInside. Subscribe to our free weekly newsletter and join 5278 existing subscribers.

By subscribing, you accept our terms and conditions and that you've read our privacy policy.

AeroInside Blog
Popular aircraft
Airbus A320
Boeing 737-800
Boeing 737-800 MAX
Popular airlines
American Airlines
United
Delta
Air Canada
Lufthansa
British Airways